Time;durP1;ratioP1;P1;durP2;ratioP2;P2;SDS_P1;SDS_P2;PMS_P1;PMS_P2;Temp;Humidity;BMP_temperature;BMP_pressure;BME280_temperature;BME280_humidity;BME280_pressure;Samples;Min_cycle;Max_cycle;Signal;HPM_P1;HPM_P2
2021/03/06 00:01:47;;;;;;;4.90;3.80;;;0.00;99.90;;;;;;5028423;28;20196;-81
2021/03/06 00:04:14;;;;;;;4.28;3.47;;;0.00;99.90;;;;;;5026444;28;20196;-82
2021/03/06 00:06:42;;;;;;;4.63;4.00;;;0.10;99.90;;;;;;5018243;28;20315;-82
2021/03/06 00:09:09;;;;;;;5.30;3.97;;;0.20;99.90;;;;;;5025793;28;20204;-82
2021/03/06 00:11:36;;;;;;;6.83;3.93;;;0.10;99.90;;;;;;5030479;28;20208;-81
2021/03/06 00:14:03;;;;;;;6.37;5.03;;;0.10;99.90;;;;;;5036239;28;20567;-82
2021/03/06 00:16:30;;;;;;;4.17;3.47;;;0.10;99.90;;;;;;5002995;28;20248;-81
2021/03/06 00:18:57;;;;;;;7.00;3.80;;;0.10;99.90;;;;;;5040133;28;20283;-81
2021/03/06 00:21:24;;;;;;;5.80;4.30;;;0.50;99.90;;;;;;5020979;28;20196;-81
2021/03/06 00:23:52;;;;;;;5.17;3.97;;;0.30;99.90;;;;;;5033159;28;20176;-86
2021/03/06 00:26:19;;;;;;;4.00;3.60;;;0.30;99.90;;;;;;5040552;28;20220;-86
2021/03/06 00:28:46;;;;;;;4.30;3.47;;;0.30;99.90;;;;;;5026831;28;20177;-85
2021/03/06 00:31:12;;;;;;;7.03;3.67;;;0.30;99.90;;;;;;5038627;28;20219;-83
2021/03/06 00:33:39;;;;;;;5.05;3.55;;;0.50;99.90;;;;;;5049377;28;20198;-87
2021/03/06 00:36:07;;;;;;;8.50;3.30;;;0.20;99.90;;;;;;5050201;28;20254;-86
2021/03/06 00:38:34;;;;;;;5.32;3.67;;;0.10;99.90;;;;;;5065907;28;20180;-85
2021/03/06 00:41:01;;;;;;;4.90;3.20;;;0.10;99.90;;;;;;5052370;28;20188;-84
2021/03/06 00:43:28;;;;;;;4.90;3.37;;;0.10;99.90;;;;;;5053622;28;20172;-86
2021/03/06 00:45:55;;;;;;;4.25;3.55;;;0.20;99.90;;;;;;5031839;28;20215;-87
2021/03/06 00:48:22;;;;;;;5.97;3.73;;;0.20;99.90;;;;;;5036866;28;20215;-82
2021/03/06 00:50:49;;;;;;;5.35;4.18;;;0.30;99.90;;;;;;5021413;28;20238;-81
2021/03/06 00:53:16;;;;;;;5.30;3.25;;;0.20;99.90;;;;;;5022606;28;20268;-81
2021/03/06 00:55:44;;;;;;;11.38;4.57;;;0.30;99.90;;;;;;5012721;28;20231;-82
2021/03/06 00:58:12;;;;;;;4.50;3.33;;;0.30;99.90;;;;;;5007720;28;20224;-82
2021/03/06 01:00:40;;;;;;;6.43;3.63;;;0.20;99.90;;;;;;5027727;28;20207;-82
2021/03/06 01:03:08;;;;;;;4.18;3.10;;;0.20;99.90;;;;;;5012205;28;20226;-81
2021/03/06 01:05:35;;;;;;;3.75;3.45;;;0.20;99.90;;;;;;5017559;28;20228;-82
2021/03/06 01:08:04;;;;;;;7.00;3.73;;;0.20;99.90;;;;;;5026957;28;20287;-81
2021/03/06 01:10:35;;;;;;;8.97;3.03;;;0.20;99.90;;;;;;5028392;28;20196;-82
2021/03/06 01:13:02;;;;;;;2.67;2.47;;;0.20;99.90;;;;;;5035280;28;20188;-82
2021/03/06 01:15:29;;;;;;;4.67;3.37;;;0.20;99.90;;;;;;5022541;28;20224;-83
2021/03/06 01:17:57;;;;;;;3.43;3.13;;;0.20;99.90;;;;;;5038752;28;20192;-84
2021/03/06 01:20:24;;;;;;;3.43;2.90;;;0.10;99.90;;;;;;5032776;28;20294;-81
2021/03/06 01:22:51;;;;;;;5.10;3.30;;;0.10;99.90;;;;;;5018237;28;20221;-82
2021/03/06 01:25:18;;;;;;;2.60;2.40;;;0.20;99.90;;;;;;5010585;28;20259;-80
2021/03/06 01:27:45;;;;;;;3.90;2.93;;;0.10;99.90;;;;;;5011117;28;20200;-81
2021/03/06 01:30:13;;;;;;;4.23;2.80;;;0.10;99.90;;;;;;5036444;28;20582;-82
2021/03/06 01:32:41;;;;;;;6.33;3.13;;;0.10;99.90;;;;;;5020844;28;20225;-82
2021/03/06 01:35:10;;;;;;;5.37;3.27;;;0.00;99.90;;;;;;5010188;28;20213;-82
2021/03/06 01:37:37;;;;;;;3.00;2.53;;;0.00;99.90;;;;;;5027566;28;20227;-83
2021/03/06 01:40:07;;;;;;;7.22;2.83;;;0.10;99.90;;;;;;5021967;28;20644;-83
2021/03/06 01:42:53;;;;;;;5.10;2.63;;;0.10;99.90;;;;;;5027408;28;20659;-82
2021/03/06 01:45:20;;;;;;;4.53;2.77;;;0.10;99.90;;;;;;5031331;28;20219;-82
2021/03/06 01:47:50;;;;;;;4.97;3.10;;;0.10;99.90;;;;;;5029761;28;20203;-82
2021/03/06 01:50:21;;;;;;;5.30;2.88;;;0.10;99.90;;;;;;5026340;28;20238;-84
2021/03/06 01:52:49;;;;;;;4.00;3.00;;;0.10;99.90;;;;;;5034562;28;20232;-81
2021/03/06 01:55:18;;;;;;;4.30;2.43;;;0.00;99.90;;;;;;5032878;28;20215;-81
2021/03/06 01:57:46;;;;;;;4.18;3.20;;;0.00;99.90;;;;;;5030266;28;20196;-82
2021/03/06 02:00:14;;;;;;;7.82;2.90;;;0.00;99.90;;;;;;5018386;28;20290;-81
2021/03/06 02:02:42;;;;;;;4.87;3.50;;;0.00;99.90;;;;;;5031805;28;20192;-82
2021/03/06 02:05:12;;;;;;;3.88;2.65;;;-0.10;99.90;;;;;;5042173;28;20223;-84
2021/03/06 02:07:40;;;;;;;4.03;2.50;;;-0.10;99.90;;;;;;5036121;28;20200;-83
2021/03/06 02:10:08;;;;;;;5.68;4.00;;;-0.10;99.90;;;;;;5033969;28;20220;-83
2021/03/06 02:12:42;;;;;;;3.97;3.10;;;-0.10;99.90;;;;;;5046346;28;20235;-83
2021/03/06 02:15:29;;;;;;;5.38;2.70;;;-0.10;99.90;;;;;;5054140;28;20216;-85
2021/03/06 02:18:01;;;;;;;4.67;3.17;;;0.00;99.90;;;;;;5054956;28;20278;-83
2021/03/06 02:20:50;;;;;;;8.17;3.57;;;0.00;99.90;;;;;;5039656;28;20196;-84
2021/03/06 02:23:45;;;;;;;4.50;3.10;;;-0.10;99.90;;;;;;5028820;28;20193;-83
2021/03/06 02:26:27;;;;;;;8.23;4.18;;;-0.10;99.90;;;;;;5034295;28;20276;-83
2021/03/06 02:29:03;;;;;;;9.33;3.90;;;-0.20;99.90;;;;;;5041155;28;20220;-84
2021/03/06 02:31:34;;;;;;;3.43;2.80;;;0.00;99.90;;;;;;5033368;28;20734;-84
2021/03/06 02:34:03;;;;;;;5.03;3.17;;;0.10;99.90;;;;;;5032714;28;20235;-83
2021/03/06 02:36:33;;;;;;;5.23;2.73;;;-0.20;99.90;;;;;;5035872;28;20768;-84
2021/03/06 02:39:03;;;;;;;4.23;2.20;;;-0.20;99.90;;;;;;5036318;28;20200;-81
2021/03/06 02:41:32;;;;;;;4.80;2.75;;;-0.30;99.90;;;;;;5028394;28;20287;-82
2021/03/06 02:44:01;;;;;;;2.50;2.30;;;-0.30;99.90;;;;;;5039636;28;20243;-82
2021/03/06 02:46:31;;;;;;;10.07;3.53;;;0.00;99.90;;;;;;5031685;28;20240;-81
2021/03/06 02:48:59;;;;;;;5.50;3.33;;;-0.10;99.90;;;;;;5008166;28;20264;-82
2021/03/06 02:51:35;;;;;;;5.17;3.07;;;-0.20;99.90;;;;;;5017511;28;20240;-83
2021/03/06 02:54:02;;;;;;;6.53;3.17;;;-0.30;99.90;;;;;;5037203;28;20198;-82
2021/03/06 02:56:29;;;;;;;5.47;2.90;;;-0.20;99.90;;;;;;5027139;28;20223;-82
2021/03/06 02:59:12;;;;;;;6.47;3.47;;;-0.30;99.90;;;;;;5030484;28;20284;-82
2021/03/06 03:01:52;;;;;;;10.50;3.20;;;-0.30;99.90;;;;;;5044080;28;20284;-83
2021/03/06 03:04:26;;;;;;;7.30;2.43;;;-0.30;99.90;;;;;;5025486;28;20188;-82
2021/03/06 03:07:08;;;;;;;5.53;2.23;;;-0.20;99.90;;;;;;5033873;28;20222;-82
2021/03/06 03:09:40;;;;;;;4.63;2.73;;;-0.20;99.90;;;;;;5044499;28;20200;-84
2021/03/06 03:12:13;;;;;;;6.63;2.90;;;-0.10;99.90;;;;;;5044941;28;20208;-82
2021/03/06 03:14:47;;;;;;;4.97;3.00;;;0.20;99.90;;;;;;5049996;28;20207;-82
2021/03/06 03:17:20;;;;;;;4.10;2.50;;;0.00;99.90;;;;;;5033874;28;20188;-80
2021/03/06 03:19:58;;;;;;;3.93;2.77;;;0.20;99.90;;;;;;5035019;28;20227;-82
2021/03/06 03:22:27;;;;;;;7.20;2.43;;;0.00;99.90;;;;;;5006857;28;20185;-83
2021/03/06 03:24:56;;;;;;;4.90;2.77;;;0.00;99.90;;;;;;5043927;28;20656;-83
2021/03/06 03:27:26;;;;;;;7.63;3.30;;;0.20;99.90;;;;;;5037555;28;20192;-83
2021/03/06 03:29:53;;;;;;;8.00;2.47;;;0.10;99.90;;;;;;5045678;28;20196;-84
2021/03/06 03:32:23;;;;;;;8.18;2.75;;;0.00;99.90;;;;;;5026855;28;20224;-83
2021/03/06 03:34:52;;;;;;;9.37;3.43;;;0.00;99.90;;;;;;5028507;28;20193;-82
2021/03/06 03:37:20;;;;;;;5.47;3.50;;;0.00;99.90;;;;;;5039501;28;20200;-86
2021/03/06 03:39:48;;;;;;;6.77;3.33;;;0.00;99.90;;;;;;5040377;28;20186;-87
2021/03/06 03:42:17;;;;;;;8.70;3.60;;;0.20;99.90;;;;;;5023844;28;20188;-87
2021/03/06 03:44:46;;;;;;;8.07;3.55;;;0.00;99.90;;;;;;5040575;28;20192;-86
2021/03/06 03:47:13;;;;;;;6.07;2.83;;;0.30;99.90;;;;;;5061544;22;20276;-78
2021/03/06 03:49:40;;;;;;;6.40;3.30;;;0.00;99.90;;;;;;5066422;28;20195;-78
2021/03/06 03:52:08;;;;;;;4.10;2.70;;;-0.10;99.90;;;;;;5068579;28;20213;-77
2021/03/06 03:54:35;;;;;;;6.53;2.73;;;-0.10;99.90;;;;;;5060402;28;20243;-77
2021/03/06 03:57:03;;;;;;;5.87;2.50;;;-0.10;99.90;;;;;;5033186;28;20224;-79
2021/03/06 03:59:31;;;;;;;8.05;3.47;;;-0.10;99.90;;;;;;5023479;28;20663;-78
2021/03/06 04:01:58;;;;;;;6.17;3.20;;;-0.20;99.90;;;;;;5046995;28;20210;-78
2021/03/06 04:04:30;;;;;;;5.67;2.97;;;-0.20;99.90;;;;;;5072572;28;20195;-77
2021/03/06 04:06:59;;;;;;;7.00;3.27;;;-0.20;99.90;;;;;;5063209;28;20222;-78
2021/03/06 04:09:27;;;;;;;4.00;2.97;;;-0.30;99.90;;;;;;5072407;28;20226;-78
2021/03/06 04:11:54;;;;;;;12.00;3.30;;;-0.30;99.90;;;;;;5063503;28;20221;-78
2021/03/06 04:14:22;;;;;;;7.20;3.60;;;-0.20;99.90;;;;;;5072706;28;20187;-78
2021/03/06 04:16:48;;;;;;;5.85;2.83;;;-0.20;99.90;;;;;;5060609;28;20246;-78
2021/03/06 04:19:15;;;;;;;5.75;3.38;;;-0.10;99.90;;;;;;5060053;28;20662;-78
2021/03/06 04:21:42;;;;;;;6.33;3.07;;;-0.20;99.90;;;;;;5071942;28;20210;-78
2021/03/06 04:24:09;;;;;;;4.87;3.07;;;-0.20;99.90;;;;;;5066634;28;20191;-80
2021/03/06 04:26:36;;;;;;;4.33;3.33;;;-0.20;99.90;;;;;;5068526;28;20290;-78
2021/03/06 04:29:03;;;;;;;4.53;2.90;;;-0.20;99.90;;;;;;5053906;28;20203;-77
2021/03/06 04:31:30;;;;;;;7.63;2.63;;;-0.20;99.90;;;;;;5064829;28;20234;-77
2021/03/06 04:33:57;;;;;;;7.33;2.87;;;-0.20;99.90;;;;;;5064290;28;20202;-77
2021/03/06 04:36:23;;;;;;;8.60;3.60;;;-0.20;99.90;;;;;;5056110;28;20253;-78
2021/03/06 04:38:50;;;;;;;6.73;3.17;;;-0.10;99.90;;;;;;5072233;28;20662;-78
2021/03/06 04:41:17;;;;;;;4.38;3.45;;;-0.20;99.90;;;;;;5065111;28;20221;-77
2021/03/06 04:43:45;;;;;;;5.63;3.67;;;-0.20;99.90;;;;;;5062683;28;20205;-78
2021/03/06 04:46:11;;;;;;;7.03;3.27;;;-0.20;99.90;;;;;;5059868;28;20215;-78
2021/03/06 04:48:38;;;;;;;9.23;4.57;;;-0.20;99.90;;;;;;5056811;28;20198;-77
2021/03/06 04:51:05;;;;;;;5.47;3.30;;;-0.30;99.90;;;;;;5070137;28;20277;-77
2021/03/06 04:53:33;;;;;;;7.70;3.27;;;-0.30;99.90;;;;;;5058555;28;20252;-78
2021/03/06 04:55:59;;;;;;;10.63;3.53;;;-0.30;99.90;;;;;;5052940;28;20273;-77
2021/03/06 04:58:26;;;;;;;7.03;2.97;;;-0.30;99.90;;;;;;5066573;28;20263;-78
2021/03/06 05:00:54;;;;;;;7.17;2.70;;;-0.10;99.90;;;;;;5065122;28;20537;-78
2021/03/06 05:03:20;;;;;;;8.40;3.55;;;-0.30;99.90;;;;;;5066392;28;20245;-77
2021/03/06 05:05:47;;;;;;;5.50;3.13;;;-0.30;99.90;;;;;;5071056;28;20226;-78
2021/03/06 05:08:13;;;;;;;6.77;3.40;;;-0.20;99.90;;;;;;5058424;28;20191;-78
2021/03/06 05:10:40;;;;;;;5.33;3.00;;;-0.20;99.90;;;;;;5051804;28;20195;-78
2021/03/06 05:13:07;;;;;;;3.53;2.55;;;-0.30;99.90;;;;;;5050899;28;20214;-77
2021/03/06 05:15:34;;;;;;;5.90;3.00;;;-0.30;99.90;;;;;;5038913;28;20308;-77
2021/03/06 05:18:01;;;;;;;4.20;3.60;;;-0.30;99.90;;;;;;5057080;28;20229;-78
2021/03/06 05:20:28;;;;;;;3.25;2.88;;;-0.30;99.90;;;;;;5038408;28;20672;-78
2021/03/06 05:22:55;;;;;;;7.07;3.00;;;-0.30;99.90;;;;;;5069684;28;20205;-79
2021/03/06 05:25:21;;;;;;;13.88;4.35;;;-0.30;99.90;;;;;;5052472;28;20187;-78
2021/03/06 05:27:52;;;;;;;7.23;3.40;;;-0.30;99.90;;;;;;5060909;28;20225;-77
2021/03/06 05:30:20;;;;;;;4.20;2.83;;;-0.30;99.90;;;;;;5059456;28;20199;-78
2021/03/06 05:32:47;;;;;;;8.35;3.20;;;-0.30;99.90;;;;;;5060715;28;20757;-78
2021/03/06 05:35:15;;;;;;;7.90;3.10;;;-0.30;99.90;;;;;;5054046;28;20297;-78
2021/03/06 05:37:42;;;;;;;6.80;3.35;;;-0.30;99.90;;;;;;5070925;28;20198;-78
2021/03/06 05:40:10;;;;;;;10.27;3.40;;;-0.30;99.90;;;;;;5058795;28;20191;-78
2021/03/06 05:42:37;;;;;;;4.10;3.10;;;-0.30;99.90;;;;;;5056346;28;20186;-77
2021/03/06 05:45:07;;;;;;;9.73;3.43;;;-0.30;99.90;;;;;;5051007;28;20340;-78
2021/03/06 05:47:34;;;;;;;5.93;3.40;;;-0.30;99.90;;;;;;5051617;28;20381;-78
2021/03/06 05:50:03;;;;;;;4.80;2.43;;;-0.30;99.90;;;;;;5069078;28;20202;-78
2021/03/06 05:52:32;;;;;;;5.73;3.20;;;-0.30;99.90;;;;;;5064829;28;20272;-77
2021/03/06 05:55:00;;;;;;;4.05;2.60;;;-0.30;99.90;;;;;;5061809;28;20194;-78
2021/03/06 05:57:27;;;;;;;3.43;2.70;;;-0.20;99.90;;;;;;5065307;28;20266;-78
2021/03/06 05:59:55;;;;;;;9.93;3.27;;;-0.30;99.90;;;;;;5058003;28;20692;-78
2021/03/06 06:02:22;;;;;;;9.47;3.07;;;-0.30;99.90;;;;;;5052385;28;20600;-77
2021/03/06 06:04:48;;;;;;;7.25;3.53;;;-0.30;99.90;;;;;;5050510;28;20825;-78
2021/03/06 06:07:16;;;;;;;4.50;3.03;;;-0.40;99.90;;;;;;5055490;28;20207;-78
2021/03/06 06:09:45;;;;;;;8.80;3.27;;;-0.40;99.90;;;;;;5051054;28;20199;-78
2021/03/06 06:12:12;;;;;;;3.87;3.23;;;-0.30;99.90;;;;;;5043451;28;20211;-78
2021/03/06 06:14:40;;;;;;;5.82;2.83;;;-0.40;99.90;;;;;;5064633;28;20615;-78
2021/03/06 06:17:08;;;;;;;8.50;3.08;;;-0.30;99.90;;;;;;5052574;28;20302;-77
2021/03/06 06:19:35;;;;;;;4.13;2.67;;;-0.30;99.90;;;;;;5056232;28;20218;-78
2021/03/06 06:22:14;;;;;;;3.38;2.83;;;-0.30;99.90;;;;;;5072033;28;20277;-78
2021/03/06 06:24:44;;;;;;;5.70;3.13;;;-0.30;99.90;;;;;;5060575;28;20244;-78
2021/03/06 06:27:12;;;;;;;7.90;3.10;;;-0.20;99.90;;;;;;5039160;28;20254;-78
2021/03/06 06:29:40;;;;;;;7.00;2.77;;;-0.10;99.90;;;;;;5069233;28;20196;-77
2021/03/06 06:32:11;;;;;;;9.55;3.60;;;-0.10;99.90;;;;;;5069589;28;20675;-79
2021/03/06 06:34:39;;;;;;;5.07;3.67;;;0.00;99.90;;;;;;5082623;28;20191;-78
2021/03/06 06:37:11;;;;;;;9.30;3.55;;;0.10;99.90;;;;;;5063848;28;20207;-78
2021/03/06 06:39:39;;;;;;;5.07;4.13;;;0.10;99.90;;;;;;5046784;28;20223;-78
2021/03/06 06:42:07;;;;;;;7.37;3.40;;;0.10;99.90;;;;;;5053895;28;20609;-78
2021/03/06 06:44:36;;;;;;;8.60;3.20;;;0.30;99.90;;;;;;5055473;28;20195;-78
2021/03/06 06:47:13;;;;;;;6.57;3.60;;;0.30;99.90;;;;;;5054677;28;20231;-78
2021/03/06 06:49:44;;;;;;;11.40;3.60;;;0.40;99.90;;;;;;5073168;28;20545;-77
2021/03/06 06:52:12;;;;;;;12.05;3.60;;;0.50;99.90;;;;;;5074917;28;20301;-78
2021/03/06 06:54:38;;;;;;;6.03;3.05;;;0.50;99.90;;;;;;5056536;28;20198;-78
2021/03/06 06:57:14;;;;;;;4.95;3.03;;;0.50;99.90;;;;;;5054924;28;20215;-78
2021/03/06 06:59:53;;;;;;;8.05;3.85;;;0.50;99.90;;;;;;5072222;28;20692;-78
2021/03/06 07:02:20;;;;;;;7.57;4.13;;;0.70;99.90;;;;;;5041391;28;20184;-78
2021/03/06 07:04:50;;;;;;;5.70;2.83;;;0.80;99.90;;;;;;5054737;28;20286;-78
2021/03/06 07:07:18;;;;;;;8.63;3.13;;;0.80;99.90;;;;;;5072971;28;20245;-78
2021/03/06 07:10:00;;;;;;;5.93;3.60;;;0.80;99.90;;;;;;5072126;28;20249;-78
2021/03/06 07:12:29;;;;;;;7.68;3.97;;;0.90;99.90;;;;;;5073917;28;20210;-78
2021/03/06 07:14:57;;;;;;;7.70;3.78;;;0.80;99.90;;;;;;5038108;28;20201;-78
2021/03/06 07:17:24;;;;;;;6.85;3.13;;;1.00;99.90;;;;;;5071307;28;20214;-78
2021/03/06 07:19:51;;;;;;;8.10;3.22;;;1.00;99.90;;;;;;5065313;28;20209;-78
2021/03/06 07:22:18;;;;;;;5.40;3.22;;;1.10;99.90;;;;;;5062483;28;20192;-78
2021/03/06 07:24:46;;;;;;;4.70;2.80;;;1.30;99.90;;;;;;5062344;28;20194;-78
2021/03/06 07:27:12;;;;;;;4.47;3.30;;;1.50;99.90;;;;;;5070483;28;20253;-78
2021/03/06 07:29:41;;;;;;;6.70;3.33;;;1.80;99.90;;;;;;5063454;28;20341;-78
2021/03/06 07:32:12;;;;;;;6.40;2.58;;;1.90;99.90;;;;;;5068525;28;20203;-78
2021/03/06 07:34:39;;;;;;;3.80;2.30;;;2.00;99.90;;;;;;5070086;28;20219;-78
2021/03/06 07:37:07;;;;;;;6.50;2.38;;;2.10;99.90;;;;;;5062644;28;20638;-78
2021/03/06 07:39:39;;;;;;;4.38;2.20;;;2.30;99.90;;;;;;5063423;28;20199;-78
2021/03/06 07:42:25;;;;;;;2.67;2.45;;;2.40;99.90;;;;;;5056594;28;20715;-78
2021/03/06 07:44:55;;;;;;;2.47;2.28;;;2.50;99.90;;;;;;5073538;28;20222;-78
2021/03/06 07:47:33;;;;;;;6.33;2.57;;;2.60;99.90;;;;;;5059723;28;20310;-78
2021/03/06 07:50:03;;;;;;;2.60;2.07;;;2.70;99.90;;;;;;5070709;28;20198;-79
2021/03/06 07:52:38;;;;;;;4.63;2.65;;;2.70;99.90;;;;;;5066732;28;20239;-78
2021/03/06 07:55:09;;;;;;;5.38;2.17;;;2.80;99.90;;;;;;5067209;28;20202;-78
2021/03/06 07:58:02;;;;;;;13.38;6.88;;;2.80;99.90;;;;;;5053752;28;20199;-78
2021/03/06 08:00:50;;;;;;;7.82;4.07;;;2.90;99.90;;;;;;5058754;28;20562;-78
2021/03/06 08:03:39;;;;;;;6.22;3.90;;;3.00;99.90;;;;;;5062961;28;20191;-78
2021/03/06 08:06:19;;;;;;;6.15;3.28;;;3.00;99.90;;;;;;5052821;28;20713;-79
2021/03/06 08:08:57;;;;;;;4.30;2.10;;;3.10;99.90;;;;;;5072780;28;20198;-78
2021/03/06 08:11:25;;;;;;;4.30;1.67;;;3.10;99.90;;;;;;5061064;28;20646;-78
2021/03/06 08:13:53;;;;;;;4.63;2.00;;;3.20;99.90;;;;;;5052620;28;20240;-78
2021/03/06 08:16:40;;;;;;;4.85;2.05;;;3.40;99.90;;;;;;5052750;28;20226;-78
2021/03/06 08:19:27;;;;;;;2.90;2.22;;;3.50;99.90;;;;;;5053917;28;20202;-78
2021/03/06 08:21:57;;;;;;;3.80;2.13;;;3.80;99.90;;;;;;5051713;28;20796;-79
2021/03/06 08:24:29;;;;;;;3.42;1.88;;;3.80;99.90;;;;;;5052486;28;20266;-78
2021/03/06 08:27:19;;;;;;;5.68;2.72;;;3.90;99.90;;;;;;5040312;28;20223;-78
2021/03/06 08:29:48;;;;;;;5.07;2.50;;;4.00;99.90;;;;;;5039504;28;20227;-78
2021/03/06 08:32:26;;;;;;;6.35;1.88;;;4.00;99.90;;;;;;5064928;28;20220;-78
2021/03/06 08:34:54;;;;;;;2.45;1.65;;;4.10;99.90;;;;;;5057563;28;20566;-82
2021/03/06 08:37:34;;;;;;;6.95;2.05;;;4.00;99.90;;;;;;5061534;28;20587;-82
2021/03/06 08:40:13;;;;;;;4.68;1.80;;;4.00;99.90;;;;;;5063703;28;20666;-81
2021/03/06 08:42:42;;;;;;;5.07;2.08;;;4.10;99.90;;;;;;5043835;28;20203;-81
2021/03/06 08:45:13;;;;;;;3.42;1.60;;;4.20;99.90;;;;;;5043611;28;20231;-82
2021/03/06 08:47:42;;;;;;;5.95;2.25;;;4.40;99.90;;;;;;5068888;28;20238;-82
2021/03/06 08:50:12;;;;;;;4.57;2.43;;;4.40;99.90;;;;;;5060717;28;20207;-83
2021/03/06 08:52:40;;;;;;;4.70;1.55;;;4.50;99.90;;;;;;5059743;28;20218;-81
2021/03/06 08:55:09;;;;;;;3.05;1.92;;;4.70;99.90;;;;;;5079976;28;20209;-82
2021/03/06 08:57:38;;;;;;;5.60;1.83;;;4.50;99.90;;;;;;5080772;28;20203;-81
2021/03/06 09:00:15;;;;;;;6.37;1.60;;;4.60;99.90;;;;;;5068664;28;20203;-78
2021/03/06 09:02:43;;;;;;;4.43;2.40;;;4.70;99.90;;;;;;5061183;28;20282;-79
2021/03/06 09:05:16;;;;;;;4.65;2.40;;;4.70;99.90;;;;;;5043095;28;20233;-79
2021/03/06 09:07:45;;;;;;;4.38;2.13;;;4.80;99.90;;;;;;5059738;28;20180;-81
2021/03/06 09:10:25;;;;;;;6.15;2.20;;;4.80;99.90;;;;;;5060770;28;20600;-80
2021/03/06 09:12:55;;;;;;;1.70;1.60;;;4.80;99.90;;;;;;5060067;28;20742;-80
2021/03/06 09:15:49;;;;;;;3.05;1.52;;;5.00;99.90;;;;;;5043952;28;20199;-79
2021/03/06 09:18:20;;;;;;;4.80;1.90;;;4.80;99.90;;;;;;5059633;28;20290;-80
2021/03/06 09:20:51;;;;;;;2.20;1.95;;;4.70;99.90;;;;;;5059672;28;20191;-79
2021/03/06 09:23:29;;;;;;;7.18;1.42;;;4.90;99.90;;;;;;5042766;28;20212;-79
2021/03/06 09:25:58;;;;;;;3.22;1.98;;;4.90;99.90;;;;;;5060126;28;20218;-80
2021/03/06 09:28:26;;;;;;;6.80;2.45;;;4.70;99.90;;;;;;5059982;28;20196;-79
2021/03/06 09:30:55;;;;;;;2.05;1.85;;;4.60;99.90;;;;;;5060767;28;20199;-79
2021/03/06 09:33:31;;;;;;;5.78;2.38;;;4.60;99.90;;;;;;5061734;28;20216;-81
2021/03/06 09:36:01;;;;;;;11.88;3.17;;;4.60;99.90;;;;;;5061827;28;20836;-80
2021/03/06 09:38:29;;;;;;;5.88;2.50;;;4.60;99.90;;;;;;5062452;28;20226;-80
2021/03/06 09:40:56;;;;;;;5.55;2.05;;;5.00;99.90;;;;;;5065277;28;20211;-80
2021/03/06 09:43:29;;;;;;;3.90;2.17;;;5.30;99.90;;;;;;5061824;28;20192;-79
2021/03/06 09:45:57;;;;;;;4.45;2.17;;;5.20;99.90;;;;;;5064388;28;20230;-80
2021/03/06 09:48:27;;;;;;;5.28;2.35;;;5.50;99.90;;;;;;5072383;28;20187;-80
2021/03/06 09:50:56;;;;;;;7.45;2.00;;;5.70;99.90;;;;;;5072872;28;20196;-80
2021/03/06 09:53:24;;;;;;;2.80;1.80;;;5.80;99.90;;;;;;5055403;28;20210;-80
2021/03/06 09:56:06;;;;;;;2.88;2.05;;;5.80;99.90;;;;;;5067702;28;20235;-81
2021/03/06 09:58:34;;;;;;;2.85;1.65;;;5.90;99.90;;;;;;5063980;28;20206;-80
2021/03/06 10:01:17;;;;;;;5.18;1.58;;;5.90;99.90;;;;;;5059364;28;20250;-81
2021/03/06 10:03:46;;;;;;;3.25;1.38;;;5.90;99.90;;;;;;5043075;28;20238;-80
2021/03/06 10:06:15;;;;;;;1.73;1.63;;;5.70;99.90;;;;;;5044112;28;20699;-81
2021/03/06 10:08:51;;;;;;;1.35;1.10;;;5.70;99.90;;;;;;5049712;28;20210;-80
2021/03/06 10:11:19;;;;;;;5.40;1.65;;;5.10;99.90;;;;;;5046779;28;20225;-80
2021/03/06 10:13:51;;;;;;;3.63;1.48;;;4.70;99.90;;;;;;5046516;28;20211;-80
2021/03/06 10:16:19;;;;;;;4.68;2.20;;;4.40;99.90;;;;;;5046679;28;20302;-81
2021/03/06 10:18:47;;;;;;;1.42;1.33;;;4.50;99.90;;;;;;5062205;28;20209;-80
2021/03/06 10:21:17;;;;;;;2.97;1.63;;;4.70;99.90;;;;;;5063222;28;20210;-80
2021/03/06 10:23:46;;;;;;;3.10;1.65;;;5.00;99.90;;;;;;5062512;28;20739;-81
2021/03/06 10:26:21;;;;;;;2.15;1.70;;;5.20;99.90;;;;;;5074211;28;20266;-81
2021/03/06 10:28:50;;;;;;;6.30;2.95;;;5.20;99.90;;;;;;5067653;28;20202;-80
2021/03/06 10:31:33;;;;;;;3.55;1.98;;;5.30;99.90;;;;;;5078868;28;20183;-80
2021/03/06 10:34:21;;;;;;;4.32;2.17;;;5.40;99.90;;;;;;5079488;28;20190;-81
2021/03/06 10:37:13;;;;;;;3.53;1.88;;;5.50;99.90;;;;;;5060011;28;20219;-81
2021/03/06 10:39:55;;;;;;;2.97;1.50;;;5.60;99.90;;;;;;5062401;28;20206;-81
2021/03/06 10:42:23;;;;;;;5.05;1.77;;;5.20;99.90;;;;;;5060947;28;20222;-81
2021/03/06 10:44:49;;;;;;;3.58;2.67;;;5.20;99.90;;;;;;5061294;28;20203;-81
2021/03/06 10:47:20;;;;;;;3.53;2.40;;;5.20;99.90;;;;;;5060322;28;20319;-81
2021/03/06 10:49:49;;;;;;;5.28;2.45;;;5.60;99.90;;;;;;5061489;28;20187;-81
2021/03/06 10:52:27;;;;;;;5.75;2.63;;;5.80;99.90;;;;;;5062256;28;20223;-81
2021/03/06 10:54:57;;;;;;;5.55;2.20;;;6.00;99.90;;;;;;5059731;28;20195;-82
2021/03/06 10:57:26;;;;;;;2.63;2.28;;;6.00;99.90;;;;;;5060292;28;20230;-83
2021/03/06 10:59:53;;;;;;;3.88;1.95;;;5.70;99.90;;;;;;5061021;28;20203;-82
2021/03/06 11:02:29;;;;;;;6.40;1.98;;;5.60;99.90;;;;;;5042549;28;20192;-82
2021/03/06 11:05:17;;;;;;;3.65;2.42;;;5.40;99.90;;;;;;5060585;28;20175;-81
2021/03/06 11:07:43;;;;;;;4.85;2.15;;;5.60;99.90;;;;;;5060075;28;20207;-81
2021/03/06 11:10:12;;;;;;;3.22;2.25;;;5.60;99.90;;;;;;5056801;28;20209;-81
2021/03/06 11:12:50;;;;;;;3.45;2.30;;;5.50;99.90;;;;;;5061031;28;20741;-81
2021/03/06 11:15:20;;;;;;;7.90;2.50;;;5.30;99.90;;;;;;5047584;28;20249;-82
2021/03/06 11:17:51;;;;;;;3.58;1.98;;;5.50;99.90;;;;;;5058873;28;20234;-81
2021/03/06 11:20:19;;;;;;;4.20;2.25;;;5.40;99.90;;;;;;5058568;28;20621;-81
2021/03/06 11:22:47;;;;;;;5.32;2.88;;;5.70;99.90;;;;;;5058782;28;20662;-81
2021/03/06 11:25:16;;;;;;;9.73;3.30;;;5.60;99.90;;;;;;5058099;28;20205;-81
2021/03/06 11:27:50;;;;;;;4.85;2.60;;;5.30;99.90;;;;;;5056091;28;20589;-77
2021/03/06 11:30:20;;;;;;;4.25;2.80;;;5.10;99.90;;;;;;5054793;28;20210;-77
2021/03/06 11:32:48;;;;;;;4.07;2.67;;;5.10;99.90;;;;;;5067735;28;20206;-76
2021/03/06 11:35:15;;;;;;;4.30;2.50;;;5.10;99.90;;;;;;5066123;28;20231;-76
2021/03/06 11:37:43;;;;;;;3.20;2.30;;;5.10;99.90;;;;;;5051652;28;20241;-77
2021/03/06 11:40:11;;;;;;;4.20;2.15;;;5.10;99.90;;;;;;5051156;28;20444;-77
2021/03/06 11:42:39;;;;;;;4.40;2.47;;;5.10;99.90;;;;;;5034567;28;20191;-77
2021/03/06 11:45:08;;;;;;;5.28;2.88;;;5.20;99.90;;;;;;5042190;28;20192;-76
2021/03/06 11:47:35;;;;;;;2.75;2.47;;;5.40;99.90;;;;;;5054819;28;20234;-78
2021/03/06 11:50:04;;;;;;;8.25;2.60;;;5.50;99.90;;;;;;5056257;28;20204;-79
2021/03/06 11:52:33;;;;;;;4.53;2.58;;;5.70;99.90;;;;;;5048750;28;20216;-78
2021/03/06 11:55:00;;;;;;;3.40;1.77;;;6.10;99.90;;;;;;5068759;28;20214;-78
2021/03/06 11:57:27;;;;;;;4.75;2.53;;;6.80;99.90;;;;;;5062750;28;20258;-83
2021/03/06 11:59:54;;;;;;;5.80;2.80;;;7.50;99.90;;;;;;5047526;28;20207;-83
2021/03/06 12:02:21;;;;;;;2.67;1.98;;;7.50;99.90;;;;;;5007713;28;20220;-84
2021/03/06 12:04:47;;;;;;;5.00;2.55;;;7.70;99.90;;;;;;5000377;28;20209;-82
2021/03/06 12:07:15;;;;;;;6.10;2.50;;;8.10;99.90;;;;;;5002344;28;20308;-82
2021/03/06 12:09:42;;;;;;;3.13;2.28;;;8.10;99.90;;;;;;5011824;28;20265;-83
2021/03/06 12:12:15;;;;;;;3.83;2.28;;;8.10;99.90;;;;;;5013625;28;20251;-82
2021/03/06 12:14:42;;;;;;;3.80;2.13;;;8.00;99.90;;;;;;5013084;28;20201;-82
2021/03/06 12:17:09;;;;;;;5.00;2.00;;;7.90;99.90;;;;;;5021519;28;20221;-82
2021/03/06 12:19:37;;;;;;;2.97;2.30;;;7.70;99.90;;;;;;5013427;28;20197;-82
2021/03/06 12:22:04;;;;;;;3.80;1.92;;;7.80;99.90;;;;;;5014961;28;20208;-81
2021/03/06 12:24:31;;;;;;;4.55;2.05;;;7.40;99.90;;;;;;5008392;28;20200;-82
2021/03/06 12:26:58;;;;;;;3.67;2.15;;;7.50;99.90;;;;;;5019184;28;20228;-82
2021/03/06 12:29:26;;;;;;;3.75;2.35;;;7.50;99.90;;;;;;4996568;28;20558;-82
2021/03/06 12:31:53;;;;;;;3.10;2.03;;;7.60;99.90;;;;;;5016249;28;20196;-82
2021/03/06 12:34:20;;;;;;;6.72;2.50;;;7.40;99.90;;;;;;5019840;28;20224;-82
2021/03/06 12:36:47;;;;;;;6.07;2.55;;;7.50;99.90;;;;;;5002042;28;20221;-79
2021/03/06 12:39:13;;;;;;;5.70;2.00;;;7.90;99.90;;;;;;5014539;28;20654;-82
2021/03/06 12:41:40;;;;;;;3.90;1.80;;;8.10;99.90;;;;;;5016589;28;20209;-81
2021/03/06 12:44:07;;;;;;;2.30;1.80;;;8.00;99.90;;;;;;5014817;28;20205;-81
2021/03/06 12:46:35;;;;;;;3.08;2.40;;;8.10;99.90;;;;;;5016853;28;20236;-82
2021/03/06 12:49:03;;;;;;;9.05;3.78;;;8.50;99.90;;;;;;5026016;28;20212;-82
2021/03/06 12:51:30;;;;;;;3.13;1.83;;;8.80;99.90;;;;;;5032648;28;20200;-81
2021/03/06 12:53:57;;;;;;;4.95;2.58;;;8.70;99.90;;;;;;5028445;28;20287;-81
2021/03/06 12:56:24;;;;;;;2.28;1.88;;;8.30;99.90;;;;;;5027454;28;20255;-82
2021/03/06 12:58:51;;;;;;;4.80;1.88;;;8.20;99.90;;;;;;5021786;28;20196;-82
2021/03/06 13:01:18;;;;;;;4.35;2.10;;;8.10;99.90;;;;;;5044877;28;20213;-82
2021/03/06 13:03:45;;;;;;;2.72;1.77;;;8.10;99.90;;;;;;5022951;28;20243;-82
2021/03/06 13:06:12;;;;;;;3.95;1.75;;;8.10;99.90;;;;;;5016160;28;20228;-82
2021/03/06 13:08:40;;;;;;;3.00;2.42;;;8.00;99.90;;;;;;5021651;28;20549;-82